createdAt,value
2023-02-15T00:01:53.309Z,5.07
2023-02-15T00:04:22.426Z,4.88
2023-02-15T00:06:49.512Z,3.95
2023-02-15T00:09:16.306Z,4.18
2023-02-15T00:11:51.508Z,4.35
2023-02-15T00:14:23.975Z,4.32
2023-02-15T00:16:53.143Z,6.20
2023-02-15T00:19:20.622Z,4.82
2023-02-15T00:21:47.496Z,4.15
2023-02-15T00:24:15.841Z,3.35
2023-02-15T00:26:42.743Z,5.50
2023-02-15T00:29:10.054Z,5.80
2023-02-15T00:31:36.927Z,4.32
2023-02-15T00:34:04.166Z,6.35
2023-02-15T00:36:30.935Z,4.10
2023-02-15T00:38:57.656Z,3.83
2023-02-15T00:41:25.027Z,4.53
2023-02-15T00:43:51.742Z,4.50
2023-02-15T00:46:18.463Z,3.90
2023-02-15T00:48:45.171Z,4.25
2023-02-15T00:51:11.862Z,3.88
2023-02-15T00:53:38.601Z,3.72
2023-02-15T00:56:05.429Z,3.85
2023-02-15T00:58:32.205Z,3.03
2023-02-15T01:01:22.182Z,5.30
2023-02-15T01:03:49.054Z,4.07
2023-02-15T01:06:16.658Z,6.07
2023-02-15T01:08:44.874Z,3.55
2023-02-15T01:11:15.504Z,5.05
2023-02-15T01:13:42.553Z,4.80
2023-02-15T01:16:09.473Z,3.83
2023-02-15T01:18:36.534Z,4.85
2023-02-15T01:21:14.795Z,7.47
2023-02-15T01:23:42.829Z,4.57
2023-02-15T01:26:10.053Z,3.88
2023-02-15T01:28:36.769Z,5.28
2023-02-15T01:31:10.887Z,5.15
2023-02-15T01:33:37.891Z,4.95
2023-02-15T01:36:05.064Z,3.03
2023-02-15T01:38:31.789Z,4.18
2023-02-15T01:41:19.341Z,3.83
2023-02-15T01:43:48.523Z,2.92
2023-02-15T01:46:16.352Z,3.17
2023-02-15T01:48:47.907Z,3.65
2023-02-15T01:51:15.253Z,3.92
2023-02-15T01:53:44.748Z,3.97
2023-02-15T01:56:20.310Z,4.95
2023-02-15T01:58:47.068Z,4.65
2023-02-15T02:01:13.802Z,4.30
2023-02-15T02:04:15.892Z,4.35
2023-02-15T02:06:42.613Z,4.15
2023-02-15T02:09:09.426Z,6.32
2023-02-15T02:11:36.181Z,5.45
2023-02-15T02:14:02.958Z,3.67
2023-02-15T02:16:48.919Z,4.10
2023-02-15T02:19:50.017Z,3.58
2023-02-15T02:22:54.070Z,3.88
2023-02-15T02:25:32.838Z,3.30
2023-02-15T02:28:27.123Z,3.80
2023-02-15T02:31:15.716Z,3.72
2023-02-15T02:34:07.377Z,4.00
2023-02-15T02:37:04.742Z,4.60
2023-02-15T02:39:38.798Z,4.22
2023-02-15T02:42:26.849Z,2.97
2023-02-15T02:45:06.900Z,3.30
2023-02-15T02:48:08.917Z,5.97
2023-02-15T02:50:35.650Z,3.13
2023-02-15T02:53:03.277Z,3.92
2023-02-15T02:55:31.133Z,3.10
2023-02-15T02:58:15.639Z,5.38
2023-02-15T03:01:06.762Z,3.75
2023-02-15T03:03:42.201Z,4.03
2023-02-15T03:06:36.869Z,3.95
2023-02-15T03:09:13.201Z,3.72
2023-02-15T03:11:39.905Z,3.70
2023-02-15T03:14:06.617Z,3.83
2023-02-15T03:16:34.442Z,3.53
2023-02-15T03:19:10.883Z,4.18
2023-02-15T03:22:04.903Z,3.35
2023-02-15T03:24:35.799Z,3.22
2023-02-15T03:27:04.345Z,3.80
2023-02-15T03:29:31.308Z,3.50
2023-02-15T03:32:00.671Z,2.97
2023-02-15T03:34:27.606Z,3.38
2023-02-15T03:36:58.046Z,4.15
2023-02-15T03:39:35.355Z,3.78
2023-02-15T03:42:05.969Z,3.10
2023-02-15T03:44:34.725Z,3.33
2023-02-15T03:47:16.689Z,3.30
2023-02-15T03:49:44.560Z,4.63
2023-02-15T03:52:11.429Z,4.90
2023-02-15T03:54:43.747Z,3.33
2023-02-15T03:57:31.451Z,3.28
2023-02-15T04:00:18.092Z,2.88
2023-02-15T04:03:10.914Z,4.47
2023-02-15T04:05:37.915Z,3.67
2023-02-15T04:08:05.676Z,4.35
2023-02-15T04:10:50.780Z,4.95
2023-02-15T04:13:17.489Z,2.83
2023-02-15T04:16:03.017Z,5.15
2023-02-15T04:19:14.907Z,3.97
2023-02-15T04:22:00.269Z,4.22
2023-02-15T04:24:45.519Z,3.53
2023-02-15T04:27:12.263Z,3.63
2023-02-15T04:29:38.982Z,4.32
2023-02-15T04:32:07.712Z,3.58
2023-02-15T04:34:34.519Z,5.32
2023-02-15T04:37:01.284Z,4.25
2023-02-15T04:39:27.994Z,3.75
2023-02-15T04:41:54.760Z,3.97
2023-02-15T04:44:21.473Z,4.28
2023-02-15T04:46:48.248Z,3.33
2023-02-15T04:49:15.120Z,4.68
2023-02-15T04:51:41.898Z,4.97
2023-02-15T04:54:09.200Z,3.72
2023-02-15T04:56:39.066Z,3.40
2023-02-15T04:59:06.008Z,3.17
2023-02-15T05:01:32.778Z,4.22
2023-02-15T05:03:59.511Z,7.57
2023-02-15T05:06:26.269Z,4.07
2023-02-15T05:08:52.994Z,4.43
2023-02-15T05:11:19.904Z,4.10
2023-02-15T05:13:46.632Z,4.88
2023-02-15T05:16:13.633Z,3.22
2023-02-15T05:18:41.014Z,3.75
2023-02-15T05:21:08.955Z,3.60
2023-02-15T05:23:35.997Z,3.53
2023-02-15T05:26:21.107Z,3.45
2023-02-15T05:28:47.845Z,5.60
2023-02-15T05:31:16.105Z,2.50
2023-02-15T05:33:43.405Z,7.55
2023-02-15T05:36:11.700Z,3.72
2023-02-15T05:38:38.916Z,4.03
2023-02-15T05:41:06.910Z,4.72
2023-02-15T05:43:33.945Z,4.03
2023-02-15T05:46:00.888Z,3.20
2023-02-15T05:48:28.107Z,4.53
2023-02-15T05:51:14.211Z,2.97
2023-02-15T05:53:41.826Z,3.60
2023-02-15T05:56:09.895Z,3.53
2023-02-15T05:58:38.896Z,4.25
2023-02-15T06:01:13.885Z,3.95
2023-02-15T06:03:41.999Z,3.40
2023-02-15T06:06:08.752Z,4.95
2023-02-15T06:08:36.260Z,4.53
2023-02-15T06:11:02.990Z,4.53
2023-02-15T06:13:29.851Z,6.30
2023-02-15T06:15:56.794Z,6.10
2023-02-15T06:18:23.595Z,4.47
2023-02-15T06:20:50.427Z,8.75
2023-02-15T06:23:17.298Z,3.72
2023-02-15T06:25:44.989Z,4.65
2023-02-15T06:28:13.572Z,7.78
2023-02-15T06:30:40.842Z,9.48
2023-02-15T06:33:08.292Z,4.68
2023-02-15T06:35:35.042Z,7.45
2023-02-15T06:38:01.799Z,5.20
2023-02-15T06:40:28.524Z,3.75
2023-02-15T06:42:55.276Z,5.82
2023-02-15T06:45:22.069Z,4.47
2023-02-15T06:47:48.813Z,5.20
2023-02-15T06:50:15.529Z,7.13
2023-02-15T06:52:43.858Z,6.38
2023-02-15T06:55:11.582Z,4.93
2023-02-15T06:57:38.349Z,4.75
2023-02-15T07:00:05.955Z,4.70
2023-02-15T07:02:32.925Z,7.97
2023-02-15T07:04:59.679Z,4.18
2023-02-15T07:07:26.466Z,8.30
2023-02-15T07:09:53.201Z,7.32
2023-02-15T07:12:38.335Z,4.95
2023-02-15T07:15:07.357Z,4.35
2023-02-15T07:17:36.417Z,6.57
2023-02-15T07:20:24.101Z,4.88
2023-02-15T07:22:51.054Z,5.68
2023-02-15T07:25:18.467Z,3.22
2023-02-15T07:27:45.961Z,3.28
2023-02-15T07:30:14.658Z,5.07
2023-02-15T07:33:04.817Z,5.97
2023-02-15T07:35:32.234Z,6.10
2023-02-15T07:37:58.957Z,3.67
2023-02-15T07:40:25.843Z,4.30
2023-02-15T07:42:57.186Z,4.70
2023-02-15T07:45:23.923Z,4.70
2023-02-15T07:47:50.694Z,4.07
2023-02-15T07:50:17.603Z,3.22
2023-02-15T07:52:44.504Z,4.30
2023-02-15T07:55:13.781Z,4.68
2023-02-15T07:57:45.353Z,3.45
2023-02-15T08:00:14.539Z,3.47
2023-02-15T08:02:41.875Z,3.15
2023-02-15T08:05:09.173Z,4.10
2023-02-15T08:07:36.008Z,4.38
2023-02-15T08:10:02.748Z,4.43
2023-02-15T08:12:29.740Z,3.38
2023-02-15T08:14:56.459Z,4.40
2023-02-15T08:17:23.808Z,5.38
2023-02-15T08:19:50.596Z,2.80
2023-02-15T08:22:17.353Z,3.55
2023-02-15T08:24:44.073Z,3.08
2023-02-15T08:27:11.905Z,3.97
2023-02-15T08:29:40.388Z,3.38
2023-02-15T08:32:10.356Z,3.40
2023-02-15T08:34:39.635Z,3.00
2023-02-15T08:37:07.054Z,4.30
2023-02-15T08:39:33.977Z,3.67
2023-02-15T08:42:00.710Z,3.85
2023-02-15T08:44:27.527Z,4.97
2023-02-15T08:46:55.663Z,4.57
2023-02-15T08:49:22.640Z,4.20
2023-02-15T08:51:49.547Z,3.63
2023-02-15T08:54:18.732Z,6.10
2023-02-15T08:56:45.701Z,5.50
2023-02-15T08:59:15.352Z,7.32
2023-02-15T09:01:43.966Z,4.13
2023-02-15T09:04:12.076Z,5.80
2023-02-15T09:06:39.482Z,3.92
2023-02-15T09:09:06.723Z,6.53
2023-02-15T09:11:42.413Z,4.07
2023-02-15T09:14:11.832Z,4.07
2023-02-15T09:16:39.018Z,2.97
2023-02-15T09:19:06.095Z,4.28
2023-02-15T09:21:33.347Z,4.30
2023-02-15T09:24:02.075Z,5.53
2023-02-15T09:26:30.259Z,4.07
2023-02-15T09:28:58.594Z,5.32
2023-02-15T09:31:31.658Z,3.13
2023-02-15T09:33:59.418Z,4.55
2023-02-15T09:36:31.370Z,3.55
2023-02-15T09:39:14.889Z,4.40
2023-02-15T09:41:47.752Z,5.05
2023-02-15T09:44:23.367Z,3.30
2023-02-15T09:46:53.648Z,3.38
2023-02-15T09:49:52.047Z,6.78
2023-02-15T09:52:44.719Z,3.92
2023-02-15T09:55:42.797Z,4.88
2023-02-15T09:58:27.540Z,2.97
2023-02-15T10:01:13.700Z,3.90
2023-02-15T10:04:09.811Z,7.38
2023-02-15T10:06:48.544Z,4.03
2023-02-15T10:09:20.832Z,3.67
2023-02-15T10:12:08.992Z,5.95
2023-02-15T10:14:45.832Z,4.97
2023-02-15T10:17:31.478Z,4.32
2023-02-15T10:20:30.079Z,4.40
2023-02-15T10:23:05.650Z,4.65
2023-02-15T10:26:03.261Z,6.57
2023-02-15T10:28:36.095Z,6.70
2023-02-15T10:31:10.219Z,4.72
2023-02-15T10:33:44.431Z,4.85
2023-02-15T10:36:29.983Z,3.70
2023-02-15T10:39:03.851Z,10.32
2023-02-15T10:41:59.042Z,3.42
2023-02-15T10:45:13.598Z,5.03
2023-02-15T10:47:52.390Z,4.03
2023-02-15T10:50:31.060Z,3.00
2023-02-15T10:53:12.758Z,3.92
2023-02-15T10:55:53.608Z,3.72
2023-02-15T10:58:37.184Z,4.22
2023-02-15T11:01:31.650Z,4.95
2023-02-15T11:04:30.600Z,4.90
2023-02-15T11:07:20.598Z,3.70
2023-02-15T11:10:00.995Z,4.15
2023-02-15T11:12:28.609Z,3.17
2023-02-15T11:15:19.628Z,4.25
2023-02-15T11:17:53.218Z,5.65
2023-02-15T11:20:20.289Z,5.47
2023-02-15T11:22:49.582Z,5.72
2023-02-15T11:25:20.412Z,4.45
2023-02-15T11:27:47.987Z,4.70
2023-02-15T11:30:15.671Z,3.65
2023-02-15T11:32:50.240Z,4.03
2023-02-15T11:35:31.781Z,6.72
2023-02-15T11:38:12.617Z,3.30
2023-02-15T11:41:02.392Z,4.15
2023-02-15T11:43:31.494Z,5.32
2023-02-15T11:45:58.275Z,3.75
2023-02-15T11:48:25.052Z,6.18
2023-02-15T11:50:51.777Z,4.60
2023-02-15T11:53:20.185Z,3.08
2023-02-15T11:55:47.579Z,4.40
2023-02-15T11:58:30.976Z,3.70
2023-02-15T12:01:03.845Z,3.42
2023-02-15T12:03:37.775Z,4.82
2023-02-15T12:06:05.239Z,4.57
2023-02-15T12:08:39.648Z,3.25
2023-02-15T12:11:32.699Z,2.65
2023-02-15T12:14:01.049Z,5.80
2023-02-15T12:16:28.715Z,3.45
2023-02-15T12:18:59.986Z,2.95
2023-02-15T12:21:35.205Z,3.55
2023-02-15T12:24:18.820Z,4.53
2023-02-15T12:26:45.598Z,3.55
2023-02-15T12:29:18.477Z,4.47
2023-02-15T12:31:46.499Z,3.85
2023-02-15T12:34:17.326Z,4.18
2023-02-15T12:36:51.788Z,3.85
2023-02-15T12:39:21.681Z,7.75
2023-02-15T12:41:58.717Z,2.60
2023-02-15T12:44:26.947Z,6.15
2023-02-15T12:47:17.738Z,3.95
2023-02-15T12:49:48.201Z,4.72
2023-02-15T12:52:23.465Z,3.40
2023-02-15T12:54:50.294Z,6.25
2023-02-15T12:57:30.267Z,6.13
2023-02-15T13:00:05.836Z,4.13
2023-02-15T13:02:41.490Z,3.92
2023-02-15T13:05:14.550Z,3.67
2023-02-15T13:07:44.691Z,4.50
2023-02-15T13:10:31.000Z,3.45
2023-02-15T13:12:58.853Z,3.50
2023-02-15T13:15:27.555Z,4.20
2023-02-15T13:17:54.353Z,6.82
2023-02-15T13:20:23.850Z,9.48
2023-02-15T13:22:51.741Z,4.78
2023-02-15T13:25:22.581Z,5.72
2023-02-15T13:27:58.481Z,2.70
2023-02-15T13:30:25.933Z,3.08
2023-02-15T13:32:56.052Z,5.15
2023-02-15T13:35:22.843Z,5.25
2023-02-15T13:38:08.110Z,5.05
2023-02-15T13:40:43.523Z,5.13
2023-02-15T13:43:28.939Z,3.45
2023-02-15T13:46:22.750Z,8.82
2023-02-15T13:49:13.151Z,4.10
2023-02-15T13:51:53.638Z,4.55
2023-02-15T13:54:28.565Z,6.43
2023-02-15T13:57:07.260Z,5.18
2023-02-15T13:59:45.849Z,6.03
2023-02-15T14:02:13.639Z,4.60
2023-02-15T14:05:03.459Z,5.15
2023-02-15T14:07:48.996Z,5.35
2023-02-15T14:10:38.793Z,8.38
2023-02-15T14:13:16.796Z,10.63
2023-02-15T14:16:15.094Z,8.23
2023-02-15T14:18:52.217Z,5.88
2023-02-15T14:21:33.844Z,3.78
2023-02-15T14:24:09.365Z,4.47
2023-02-15T14:26:53.921Z,9.68
2023-02-15T14:29:26.669Z,10.23
2023-02-15T14:32:10.904Z,6.47
2023-02-15T14:34:50.160Z,8.90
2023-02-15T14:37:39.584Z,9.68
2023-02-15T14:40:50.008Z,6.28
2023-02-15T14:43:25.673Z,7.05
2023-02-15T14:46:02.691Z,11.75
2023-02-15T14:48:45.045Z,3.63
2023-02-15T14:51:52.898Z,6.60
2023-02-15T14:54:23.061Z,7.85
2023-02-15T14:57:02.376Z,3.80
2023-02-15T14:59:41.407Z,2.97
2023-02-15T15:02:08.745Z,4.30
2023-02-15T15:04:38.592Z,3.88
2023-02-15T15:07:18.426Z,5.68
2023-02-15T15:09:48.155Z,4.68
2023-02-15T15:12:26.742Z,5.43
2023-02-15T15:14:55.100Z,4.10
2023-02-15T15:17:34.100Z,3.70
2023-02-15T15:20:09.404Z,5.95
2023-02-15T15:22:36.436Z,5.13
2023-02-15T15:25:05.467Z,7.35
2023-02-15T15:27:48.647Z,6.25
2023-02-15T15:30:16.674Z,6.03
2023-02-15T15:32:57.692Z,4.22
2023-02-15T15:36:07.110Z,3.70
2023-02-15T15:38:57.102Z,5.32
2023-02-15T15:41:39.250Z,6.07
2023-02-15T15:44:31.252Z,4.28
2023-02-15T15:47:03.868Z,3.83
2023-02-15T15:49:32.592Z,4.07
2023-02-15T15:52:04.025Z,3.75
2023-02-15T15:54:30.739Z,4.72
2023-02-15T15:57:02.352Z,4.35
2023-02-15T15:59:31.028Z,7.70
2023-02-15T16:01:57.840Z,3.47
2023-02-15T16:04:30.753Z,5.15
2023-02-15T16:06:58.397Z,5.18
2023-02-15T16:09:26.889Z,5.50
2023-02-15T16:12:02.769Z,5.60
2023-02-15T16:14:36.200Z,4.45
2023-02-15T16:17:05.168Z,3.20
2023-02-15T16:19:37.412Z,3.22
2023-02-15T16:22:04.301Z,5.47
2023-02-15T16:24:50.082Z,4.20
2023-02-15T16:27:44.638Z,5.30
2023-02-15T16:30:37.185Z,12.52
2023-02-15T16:33:12.034Z,7.72
2023-02-15T16:35:55.028Z,4.35
2023-02-15T16:38:43.929Z,5.70
2023-02-15T16:41:24.873Z,3.90
2023-02-15T16:43:51.866Z,8.02
2023-02-15T16:46:26.438Z,2.92
2023-02-15T16:48:53.742Z,4.55
2023-02-15T16:51:23.115Z,7.80
2023-02-15T16:53:49.919Z,5.45
2023-02-15T16:56:18.800Z,5.70
2023-02-15T16:58:47.294Z,7.70
2023-02-15T17:01:16.915Z,8.18
2023-02-15T17:03:43.755Z,9.30
2023-02-15T17:06:27.290Z,8.10
2023-02-15T17:09:04.707Z,3.15
2023-02-15T17:11:41.717Z,8.80
2023-02-15T17:14:10.124Z,4.47
2023-02-15T17:16:41.918Z,6.85
2023-02-15T17:19:20.776Z,6.45
2023-02-15T17:21:59.358Z,9.07
2023-02-15T17:24:31.893Z,9.27
2023-02-15T17:27:01.461Z,8.40
2023-02-15T17:29:52.842Z,11.75
2023-02-15T17:32:24.961Z,4.68
2023-02-15T17:35:01.126Z,9.23
2023-02-15T17:37:43.579Z,12.57
2023-02-15T17:40:20.736Z,4.95
2023-02-15T17:42:47.925Z,9.90
2023-02-15T17:45:15.925Z,7.90
2023-02-15T17:47:42.858Z,7.60
2023-02-15T17:50:22.518Z,12.80
2023-02-15T17:52:49.539Z,7.65
2023-02-15T17:55:54.434Z,8.15
2023-02-15T17:58:21.977Z,8.38
2023-02-15T18:01:11.551Z,5.78
2023-02-15T18:04:10.216Z,12.80
2023-02-15T18:06:57.103Z,13.05
2023-02-15T18:09:42.234Z,12.15
2023-02-15T18:12:33.809Z,6.80
2023-02-15T18:15:01.435Z,9.88
2023-02-15T18:17:42.683Z,12.82
2023-02-15T18:20:18.522Z,10.52
2023-02-15T18:22:49.236Z,8.70
2023-02-15T18:25:18.405Z,9.65
2023-02-15T18:27:46.250Z,17.90
2023-02-15T18:30:18.878Z,12.77
2023-02-15T18:32:46.937Z,19.33
2023-02-15T18:35:20.918Z,12.70
2023-02-15T18:37:48.385Z,13.90
2023-02-15T18:40:19.562Z,8.45
2023-02-15T18:42:49.449Z,11.38
2023-02-15T18:45:21.189Z,11.43
2023-02-15T18:47:51.389Z,20.70
2023-02-15T18:50:20.351Z,15.23
2023-02-15T18:52:50.548Z,11.43
2023-02-15T18:55:22.026Z,11.48
2023-02-15T18:57:49.912Z,13.70
2023-02-15T19:00:19.459Z,15.70
2023-02-15T19:02:47.637Z,11.20
2023-02-15T19:05:17.698Z,7.15
2023-02-15T19:07:48.280Z,6.38
2023-02-15T19:10:20.554Z,12.30
2023-02-15T19:12:48.907Z,15.32
2023-02-15T19:15:20.159Z,8.60
2023-02-15T19:17:52.698Z,13.02
2023-02-15T19:20:39.896Z,7.63
2023-02-15T19:23:19.586Z,7.10
2023-02-15T19:25:48.910Z,6.88
2023-02-15T19:28:19.974Z,9.00
2023-02-15T19:30:47.562Z,8.85
2023-02-15T19:33:20.670Z,9.50
2023-02-15T19:35:52.311Z,7.03
2023-02-15T19:38:20.884Z,12.57
2023-02-15T19:40:48.697Z,7.18
2023-02-15T19:43:17.688Z,8.55
2023-02-15T19:45:45.115Z,7.07
2023-02-15T19:48:14.062Z,8.10
2023-02-15T19:50:41.032Z,5.72
2023-02-15T19:53:35.668Z,9.48
2023-02-15T19:56:02.767Z,6.90
2023-02-15T19:58:29.980Z,17.60
2023-02-15T20:00:56.789Z,8.38
2023-02-15T20:03:23.752Z,9.20
2023-02-15T20:05:50.567Z,9.45
2023-02-15T20:08:19.884Z,11.50
2023-02-15T20:10:46.810Z,9.75
2023-02-15T20:13:14.957Z,9.50
2023-02-15T20:15:41.837Z,11.07
2023-02-15T20:18:08.719Z,5.90
2023-02-15T20:20:45.403Z,7.88
2023-02-15T20:23:27.445Z,9.60
2023-02-15T20:25:57.272Z,7.55
2023-02-15T20:28:25.713Z,7.00
2023-02-15T20:30:52.589Z,5.63
2023-02-15T20:33:21.130Z,7.88
2023-02-15T20:35:49.491Z,13.80
2023-02-15T20:38:28.008Z,9.30
2023-02-15T20:41:13.765Z,10.05
2023-02-15T20:43:40.586Z,7.07
2023-02-15T20:46:07.817Z,7.25
2023-02-15T20:48:35.965Z,7.80
2023-02-15T20:51:03.185Z,9.18
2023-02-15T20:53:30.177Z,5.20
2023-02-15T20:55:57.022Z,11.05
2023-02-15T20:58:28.331Z,13.35
2023-02-15T21:00:56.042Z,13.93
2023-02-15T21:03:30.614Z,6.70
2023-02-15T21:05:58.406Z,5.57
2023-02-15T21:08:25.377Z,5.95
2023-02-15T21:10:52.460Z,6.15
2023-02-15T21:13:24.946Z,8.10
2023-02-15T21:15:52.212Z,5.05
2023-02-15T21:18:22.930Z,7.78
2023-02-15T21:20:54.650Z,6.63
2023-02-15T21:23:23.887Z,4.82
2023-02-15T21:25:51.449Z,4.68
2023-02-15T21:28:24.019Z,3.50
2023-02-15T21:30:51.442Z,7.68
2023-02-15T21:33:18.752Z,5.07
2023-02-15T21:35:47.647Z,10.70
2023-02-15T21:38:16.015Z,8.27
2023-02-15T21:40:43.574Z,3.78
2023-02-15T21:43:33.641Z,5.85
2023-02-15T21:46:24.479Z,7.38
2023-02-15T21:48:52.079Z,9.18
2023-02-15T21:51:37.307Z,7.53
2023-02-15T21:54:04.119Z,3.20
2023-02-15T21:56:30.838Z,7.85
2023-02-15T21:58:57.543Z,3.08
2023-02-15T22:01:27.742Z,5.63
2023-02-15T22:03:55.604Z,4.57
2023-02-15T22:06:23.338Z,6.35
2023-02-15T22:08:51.594Z,6.65
2023-02-15T22:11:23.315Z,3.80
2023-02-15T22:13:50.158Z,4.10
2023-02-15T22:16:20.140Z,3.75
2023-02-15T22:18:48.273Z,5.63
2023-02-15T22:21:19.324Z,4.78
2023-02-15T22:23:47.349Z,6.30
2023-02-15T22:26:21.583Z,4.95
2023-02-15T22:28:48.888Z,4.18
2023-02-15T22:31:24.231Z,5.47
2023-02-15T22:33:52.315Z,3.88
2023-02-15T22:36:27.688Z,5.82
2023-02-15T22:38:55.163Z,5.57
2023-02-15T22:41:25.412Z,6.13
2023-02-15T22:43:53.990Z,3.92
2023-02-15T22:46:23.449Z,5.82
2023-02-15T22:48:50.717Z,6.68
2023-02-15T22:51:25.482Z,3.30
2023-02-15T22:53:55.095Z,3.35
2023-02-15T22:56:26.800Z,5.60
2023-02-15T22:59:15.115Z,3.67
2023-02-15T23:01:41.895Z,9.25
2023-02-15T23:04:18.564Z,4.32
2023-02-15T23:06:45.651Z,5.13
2023-02-15T23:09:12.644Z,4.80
2023-02-15T23:11:39.473Z,3.63
2023-02-15T23:14:06.314Z,4.65
2023-02-15T23:16:34.880Z,3.30
2023-02-15T23:19:01.852Z,4.57
2023-02-15T23:21:32.686Z,3.45
2023-02-15T23:24:17.920Z,4.75
2023-02-15T23:26:44.881Z,3.92
2023-02-15T23:29:16.686Z,5.20
2023-02-15T23:31:45.102Z,2.60
2023-02-15T23:34:30.279Z,4.85
2023-02-15T23:36:57.901Z,3.63
2023-02-15T23:39:46.678Z,6.05
2023-02-15T23:42:15.972Z,5.55
2023-02-15T23:44:44.107Z,3.53
2023-02-15T23:47:41.706Z,2.72
2023-02-15T23:50:34.752Z,5.97
2023-02-15T23:53:01.468Z,3.47
2023-02-15T23:55:38.451Z,4.47
2023-02-15T23:58:06.146Z,3.92
